createdAt,value
2022-07-28T00:01:32.932Z,19.55
2022-07-28T00:03:34.714Z,19.63
2022-07-28T00:05:36.443Z,19.49
2022-07-28T00:07:38.225Z,19.51
2022-07-28T00:09:39.995Z,19.38
2022-07-28T00:11:54.355Z,19.44
2022-07-28T00:13:56.558Z,19.53
2022-07-28T00:15:58.763Z,19.52
2022-07-28T00:18:01.174Z,19.58
2022-07-28T00:20:05.480Z,19.52
2022-07-28T00:22:07.617Z,19.48
2022-07-28T00:24:09.893Z,19.40
2022-07-28T00:26:12.590Z,19.54
2022-07-28T00:28:14.343Z,19.44
2022-07-28T00:30:16.122Z,19.42
2022-07-28T00:32:20.708Z,19.41
2022-07-28T00:34:22.865Z,19.53
2022-07-28T00:36:28.427Z,19.52
2022-07-28T00:38:30.126Z,19.44
2022-07-28T00:40:50.801Z,19.47
2022-07-28T00:42:52.547Z,19.51
2022-07-28T00:44:54.265Z,19.40
2022-07-28T00:46:55.984Z,19.44
2022-07-28T00:48:57.869Z,19.47
2022-07-28T00:50:59.669Z,19.52
2022-07-28T00:53:01.760Z,19.54
2022-07-28T00:55:05.582Z,19.46
2022-07-28T00:57:07.335Z,19.56
2022-07-28T00:59:10.222Z,19.60
2022-07-28T01:01:16.044Z,19.62
2022-07-28T01:03:18.759Z,19.54
2022-07-28T01:05:43.273Z,19.62
2022-07-28T01:08:19.168Z,19.53
2022-07-28T01:10:43.323Z,19.51
2022-07-28T01:13:11.625Z,19.47
2022-07-28T01:15:36.805Z,19.43
2022-07-28T01:18:04.620Z,19.51
2022-07-28T01:20:09.235Z,19.49
2022-07-28T01:22:15.840Z,19.39
2022-07-28T01:24:31.444Z,19.39
2022-07-28T01:26:58.533Z,19.41
2022-07-28T01:29:03.773Z,19.42
2022-07-28T01:31:09.252Z,19.41
2022-07-28T01:33:48.057Z,19.36
2022-07-28T01:36:02.126Z,19.38
2022-07-28T01:38:07.937Z,19.39
2022-07-28T01:40:12.071Z,19.36
2022-07-28T01:42:17.844Z,19.28
2022-07-28T01:44:25.239Z,19.31
2022-07-28T01:46:28.123Z,19.20
2022-07-28T01:48:32.057Z,19.33
2022-07-28T01:50:35.253Z,19.33
2022-07-28T01:52:38.904Z,19.30
2022-07-28T01:54:45.704Z,19.24
2022-07-28T01:56:51.952Z,19.32
2022-07-28T01:58:57.521Z,19.34
2022-07-28T02:01:01.062Z,19.32
2022-07-28T02:03:07.129Z,19.26
2022-07-28T02:05:12.699Z,19.36
2022-07-28T02:07:19.537Z,19.41
2022-07-28T02:09:23.021Z,19.42
2022-07-28T02:11:42.363Z,19.39
2022-07-28T02:13:48.336Z,19.45
2022-07-28T02:15:50.162Z,19.50
2022-07-28T02:17:59.525Z,19.54
2022-07-28T02:20:02.873Z,19.52
2022-07-28T02:22:06.987Z,19.56
2022-07-28T02:24:09.635Z,19.45
2022-07-28T02:26:13.748Z,19.54
2022-07-28T02:28:19.025Z,19.48
2022-07-28T02:30:46.990Z,19.52
2022-07-28T02:32:52.100Z,19.46
2022-07-28T02:34:58.387Z,19.53
2022-07-28T02:37:02.409Z,19.50
2022-07-28T02:39:22.205Z,19.56
2022-07-28T02:41:27.637Z,19.58
2022-07-28T02:43:49.915Z,19.61
2022-07-28T02:45:55.824Z,19.57
2022-07-28T02:48:05.652Z,19.62
2022-07-28T02:50:08.794Z,19.59
2022-07-28T02:52:12.296Z,19.58
2022-07-28T02:54:17.797Z,19.64
2022-07-28T02:56:20.374Z,19.67
2022-07-28T02:58:24.394Z,19.64
2022-07-28T03:00:27.369Z,19.67
2022-07-28T03:02:30.933Z,19.69
2022-07-28T03:04:52.257Z,19.71
2022-07-28T03:06:54.055Z,19.68
2022-07-28T03:08:57.132Z,19.74
2022-07-28T03:11:09.820Z,19.76
2022-07-28T03:13:11.751Z,19.78
2022-07-28T03:15:14.344Z,19.78
2022-07-28T03:17:16.638Z,19.78
2022-07-28T03:19:18.493Z,19.79
2022-07-28T03:21:20.336Z,19.75
2022-07-28T03:23:32.417Z,19.76
2022-07-28T03:25:46.621Z,19.74
2022-07-28T03:27:56.048Z,19.77
2022-07-28T03:30:15.342Z,19.71
2022-07-28T03:32:22.931Z,19.65
2022-07-28T03:34:25.125Z,19.69
2022-07-28T03:36:35.791Z,19.69
2022-07-28T03:38:39.196Z,19.66
2022-07-28T03:40:43.619Z,19.54
2022-07-28T03:42:49.695Z,19.55
2022-07-28T03:44:52.172Z,19.57
2022-07-28T03:46:53.986Z,19.58
2022-07-28T03:48:56.044Z,19.59
2022-07-28T03:50:58.974Z,19.57
2022-07-28T03:53:04.760Z,19.58
2022-07-28T03:55:07.783Z,19.60
2022-07-28T03:57:09.583Z,19.67
2022-07-28T03:59:11.557Z,19.65
2022-07-28T04:01:13.348Z,19.70
2022-07-28T04:03:22.697Z,19.64
2022-07-28T04:05:37.584Z,19.67
2022-07-28T04:07:40.505Z,19.61
2022-07-28T04:09:42.495Z,19.69
2022-07-28T04:11:44.575Z,19.70
2022-07-28T04:13:46.534Z,19.75
2022-07-28T04:15:48.454Z,19.63
2022-07-28T04:18:04.086Z,19.72
2022-07-28T04:20:07.367Z,19.73
2022-07-28T04:22:09.275Z,19.66
2022-07-28T04:24:12.098Z,19.68
2022-07-28T04:26:14.382Z,19.66
2022-07-28T04:28:16.589Z,19.69
2022-07-28T04:30:21.575Z,19.65
2022-07-28T04:32:23.786Z,19.71
2022-07-28T04:34:25.752Z,19.68
2022-07-28T04:36:27.903Z,19.73
2022-07-28T04:38:29.985Z,19.67
2022-07-28T04:40:33.821Z,19.62
2022-07-28T04:42:38.350Z,19.68
2022-07-28T04:44:42.817Z,19.69
2022-07-28T04:46:45.029Z,19.64
2022-07-28T04:48:47.121Z,19.69
2022-07-28T04:50:49.454Z,19.67
2022-07-28T04:52:51.287Z,19.62
2022-07-28T04:54:54.277Z,19.71
2022-07-28T04:56:56.368Z,19.73
2022-07-28T04:58:58.737Z,19.73
2022-07-28T05:01:01.676Z,19.76
2022-07-28T05:03:04.550Z,19.76
2022-07-28T05:05:07.050Z,19.73
2022-07-28T05:07:11.946Z,19.76
2022-07-28T05:09:15.084Z,19.78
2022-07-28T05:11:17.690Z,19.76
2022-07-28T05:13:19.499Z,19.68
2022-07-28T05:15:21.634Z,19.71
2022-07-28T05:17:25.649Z,19.68
2022-07-28T05:19:27.361Z,19.80
2022-07-28T05:21:29.186Z,19.80
2022-07-28T05:23:30.996Z,19.79
2022-07-28T05:25:32.737Z,19.85
2022-07-28T05:27:34.713Z,19.80
2022-07-28T05:29:47.368Z,19.82
2022-07-28T05:31:49.819Z,19.84
2022-07-28T05:33:52.384Z,19.82
2022-07-28T05:35:57.554Z,19.76
2022-07-28T05:38:07.598Z,19.78
2022-07-28T05:40:15.372Z,19.81
2022-07-28T05:42:17.418Z,19.74
2022-07-28T05:44:19.627Z,19.71
2022-07-28T05:46:22.420Z,19.75
2022-07-28T05:48:24.205Z,19.72
2022-07-28T05:50:26.508Z,19.76
2022-07-28T05:52:28.922Z,19.79
2022-07-28T05:54:30.623Z,19.81
2022-07-28T05:56:32.335Z,19.86
2022-07-28T05:58:34.241Z,19.76
2022-07-28T06:00:36.469Z,19.77
2022-07-28T06:02:41.964Z,19.86
2022-07-28T06:04:44.107Z,19.91
2022-07-28T06:06:45.857Z,19.80
2022-07-28T06:08:48.182Z,19.78
2022-07-28T06:10:59.207Z,19.80
2022-07-28T06:13:04.376Z,19.95
2022-07-28T06:15:07.021Z,20.02
2022-07-28T06:17:08.958Z,20.00
2022-07-28T06:19:11.026Z,20.04
2022-07-28T06:21:12.845Z,20.08
2022-07-28T06:23:20.602Z,20.10
2022-07-28T06:25:26.854Z,20.10
2022-07-28T06:27:28.585Z,20.21
2022-07-28T06:29:30.719Z,20.24
2022-07-28T06:31:32.831Z,20.22
2022-07-28T06:33:35.847Z,20.19
2022-07-28T06:35:46.709Z,20.26
2022-07-28T06:38:05.586Z,20.32
2022-07-28T06:40:08.635Z,20.31
2022-07-28T06:42:11.437Z,20.32
2022-07-28T06:44:13.786Z,20.28
2022-07-28T06:46:19.386Z,20.31
2022-07-28T06:48:23.623Z,20.39
2022-07-28T06:50:27.894Z,20.34
2022-07-28T06:52:30.365Z,20.40
2022-07-28T06:54:32.466Z,20.45
2022-07-28T06:56:35.021Z,20.31
2022-07-28T06:58:37.405Z,20.38
2022-07-28T07:00:39.273Z,20.32
2022-07-28T07:02:42.186Z,20.35
2022-07-28T07:04:44.669Z,20.25
2022-07-28T07:06:46.564Z,20.25
2022-07-28T07:08:48.832Z,20.17
2022-07-28T07:10:50.833Z,20.06
2022-07-28T07:12:52.727Z,20.19
2022-07-28T07:14:54.575Z,20.24
2022-07-28T07:16:56.770Z,20.28
2022-07-28T07:18:59.122Z,20.25
2022-07-28T07:21:01.118Z,20.26
2022-07-28T07:23:03.037Z,20.37
2022-07-28T07:25:13.332Z,20.35
2022-07-28T07:27:15.240Z,20.44
2022-07-28T07:29:17.126Z,20.51
2022-07-28T07:31:19.361Z,20.32
2022-07-28T07:33:21.653Z,20.51
2022-07-28T07:35:23.630Z,20.51
2022-07-28T07:37:26.981Z,20.61
2022-07-28T07:39:29.048Z,20.68
2022-07-28T07:41:30.874Z,20.67
2022-07-28T07:43:34.503Z,20.75
2022-07-28T07:45:37.179Z,20.78
2022-07-28T07:47:38.978Z,20.84
2022-07-28T07:49:45.094Z,20.83
2022-07-28T07:51:48.255Z,20.92
2022-07-28T07:53:50.025Z,20.92
2022-07-28T07:55:52.255Z,20.91
2022-07-28T07:58:07.502Z,21.02
2022-07-28T08:00:28.248Z,21.07
2022-07-28T08:02:31.953Z,21.07
2022-07-28T08:04:37.148Z,21.02
2022-07-28T08:06:40.348Z,21.02
2022-07-28T08:08:46.464Z,20.98
2022-07-28T08:10:51.497Z,21.09
2022-07-28T08:12:53.423Z,21.11
2022-07-28T08:14:56.249Z,21.15
2022-07-28T08:16:59.570Z,21.13
2022-07-28T08:19:01.843Z,21.10
2022-07-28T08:21:04.000Z,21.13
2022-07-28T08:23:06.546Z,21.14
2022-07-28T08:25:08.760Z,21.20
2022-07-28T08:27:11.191Z,21.15
2022-07-28T08:29:13.439Z,21.22
2022-07-28T08:31:18.332Z,21.11
2022-07-28T08:33:22.664Z,21.27
2022-07-28T08:35:35.516Z,21.22
2022-07-28T08:37:42.422Z,21.28
2022-07-28T08:39:44.129Z,21.35
2022-07-28T08:42:25.454Z,21.46
2022-07-28T08:44:50.505Z,21.43
2022-07-28T08:46:54.415Z,21.48
2022-07-28T08:49:01.543Z,21.48
2022-07-28T08:51:10.792Z,21.48
2022-07-28T08:53:15.243Z,21.57
2022-07-28T08:55:23.325Z,21.64
2022-07-28T08:57:32.725Z,21.73
2022-07-28T08:59:35.459Z,21.77
2022-07-28T09:01:39.490Z,21.84
2022-07-28T09:03:42.677Z,21.90
2022-07-28T09:05:45.612Z,21.96
2022-07-28T09:07:54.627Z,22.00
2022-07-28T09:10:02.410Z,21.95
2022-07-28T09:12:08.184Z,22.01
2022-07-28T09:14:10.277Z,22.07
2022-07-28T09:16:15.229Z,22.06
2022-07-28T09:18:17.798Z,22.06
2022-07-28T09:20:20.914Z,22.11
2022-07-28T09:22:23.473Z,21.99
2022-07-28T09:24:37.642Z,21.97
2022-07-28T09:27:00.134Z,22.12
2022-07-28T09:29:04.341Z,22.19
2022-07-28T09:31:06.575Z,22.02
2022-07-28T09:33:41.102Z,22.13
2022-07-28T09:35:46.342Z,22.14
2022-07-28T09:38:06.882Z,22.22
2022-07-28T09:40:13.339Z,22.18
2022-07-28T09:42:15.928Z,22.28
2022-07-28T09:44:21.535Z,22.34
2022-07-28T09:46:25.911Z,22.38
2022-07-28T09:48:28.039Z,22.47
2022-07-28T09:50:31.101Z,22.41
2022-07-28T09:52:35.334Z,22.52
2022-07-28T09:54:40.702Z,22.68
2022-07-28T09:56:45.399Z,22.76
2022-07-28T09:58:56.093Z,22.81
2022-07-28T10:01:16.207Z,22.85
2022-07-28T10:03:26.587Z,23.03
2022-07-28T10:05:40.495Z,23.08
2022-07-28T10:08:08.314Z,23.10
2022-07-28T10:10:11.420Z,23.24
2022-07-28T10:12:23.074Z,23.34
2022-07-28T10:14:33.648Z,23.36
2022-07-28T10:16:52.778Z,23.53
2022-07-28T10:18:56.189Z,23.70
2022-07-28T10:20:58.134Z,23.84
2022-07-28T10:23:09.528Z,24.00
2022-07-28T10:25:15.533Z,24.07
2022-07-28T10:27:17.604Z,24.01
2022-07-28T10:29:22.528Z,24.12
2022-07-28T10:31:33.087Z,24.23
2022-07-28T10:33:39.221Z,24.40
2022-07-28T10:35:54.267Z,24.44
2022-07-28T10:38:30.539Z,24.30
2022-07-28T10:40:36.276Z,24.33
2022-07-28T10:42:41.013Z,24.36
2022-07-28T10:44:45.353Z,24.31
2022-07-28T10:46:47.692Z,24.38
2022-07-28T10:48:49.753Z,24.44
2022-07-28T10:50:54.119Z,24.42
2022-07-28T10:52:59.423Z,24.48
2022-07-28T10:55:35.598Z,24.46
2022-07-28T10:57:43.770Z,24.57
2022-07-28T11:00:12.351Z,24.66
2022-07-28T11:02:52.601Z,24.66
2022-07-28T11:04:56.254Z,24.72
2022-07-28T11:07:11.384Z,24.80
2022-07-28T11:09:16.889Z,24.88
2022-07-28T11:11:53.746Z,25.07
2022-07-28T11:14:24.813Z,25.08
2022-07-28T11:16:27.073Z,24.92
2022-07-28T11:18:30.763Z,24.85
2022-07-28T11:20:53.350Z,24.84
2022-07-28T11:23:36.976Z,24.64
2022-07-28T11:25:38.709Z,24.81
2022-07-28T11:27:45.200Z,24.92
2022-07-28T11:29:48.041Z,24.96
2022-07-28T11:31:51.649Z,24.87
2022-07-28T11:33:57.462Z,24.80
2022-07-28T11:36:00.063Z,24.86
2022-07-28T11:38:08.975Z,24.95
2022-07-28T11:40:33.595Z,25.18
2022-07-28T11:42:35.979Z,25.14
2022-07-28T11:44:38.422Z,25.29
2022-07-28T11:46:40.819Z,25.32
2022-07-28T11:48:46.932Z,25.47
2022-07-28T11:51:04.140Z,25.63
2022-07-28T11:53:06.649Z,25.53
2022-07-28T11:55:08.590Z,25.53
2022-07-28T11:57:11.735Z,25.61
2022-07-28T11:59:16.630Z,25.68
2022-07-28T12:01:21.042Z,25.75
2022-07-28T12:03:49.452Z,25.84
2022-07-28T12:05:57.740Z,25.58
2022-07-28T12:08:10.514Z,25.76
2022-07-28T12:10:54.151Z,25.91
2022-07-28T12:12:53.654Z,26.10
2022-07-28T12:14:56.881Z,26.14
2022-07-28T12:16:58.704Z,26.28
2022-07-28T12:19:01.954Z,26.42
2022-07-28T12:21:05.311Z,26.40
2022-07-28T12:23:10.350Z,26.21
2022-07-28T12:25:13.953Z,26.28
2022-07-28T12:27:16.632Z,26.29
2022-07-28T12:29:20.676Z,26.19
2022-07-28T12:31:30.271Z,26.21
2022-07-28T12:33:32.385Z,26.16
2022-07-28T12:35:34.148Z,26.14
2022-07-28T12:37:35.986Z,26.15
2022-07-28T12:39:43.553Z,26.15
2022-07-28T12:41:45.681Z,26.28
2022-07-28T12:43:52.657Z,26.22
2022-07-28T12:45:55.575Z,26.15
2022-07-28T12:48:09.606Z,26.18
2022-07-28T12:50:17.466Z,26.04
2022-07-28T12:52:22.472Z,26.06
2022-07-28T12:54:36.526Z,26.14
2022-07-28T12:57:04.840Z,25.94
2022-07-28T12:59:11.597Z,25.93
2022-07-28T13:01:13.359Z,25.95
2022-07-28T13:03:27.140Z,25.99
2022-07-28T13:05:31.533Z,25.95
2022-07-28T13:07:33.803Z,25.96
2022-07-28T13:09:50.196Z,26.06
2022-07-28T13:12:02.431Z,26.17
2022-07-28T13:14:04.325Z,26.23
2022-07-28T13:16:13.148Z,26.33
2022-07-28T13:18:15.041Z,26.26
2022-07-28T13:20:16.792Z,26.13
2022-07-28T13:22:32.972Z,26.15
2022-07-28T13:24:34.877Z,26.24
2022-07-28T13:26:44.154Z,26.40
2022-07-28T13:28:46.304Z,26.58
2022-07-28T13:30:48.402Z,26.79
2022-07-28T13:32:50.323Z,26.82
2022-07-28T13:34:52.167Z,26.93
2022-07-28T13:36:54.352Z,26.96
2022-07-28T13:38:56.484Z,27.21
2022-07-28T13:40:58.234Z,27.29
2022-07-28T13:42:59.995Z,27.55
2022-07-28T13:45:02.133Z,27.53
2022-07-28T13:47:07.013Z,27.48
2022-07-28T13:49:08.842Z,27.52
2022-07-28T13:51:14.599Z,27.44
2022-07-28T13:53:16.572Z,27.29
2022-07-28T13:55:22.611Z,27.41
2022-07-28T13:57:24.857Z,27.32
2022-07-28T13:59:28.808Z,27.15
2022-07-28T14:01:31.337Z,27.27
2022-07-28T14:03:55.298Z,27.27
2022-07-28T14:05:59.901Z,27.07
2022-07-28T14:08:05.996Z,27.28
2022-07-28T14:10:08.462Z,27.32
2022-07-28T14:12:10.434Z,27.13
2022-07-28T14:14:12.850Z,27.14
2022-07-28T14:16:15.137Z,27.08
2022-07-28T14:18:17.074Z,27.14
2022-07-28T14:20:18.756Z,27.23
2022-07-28T14:22:21.112Z,27.10
2022-07-28T14:24:23.067Z,27.02
2022-07-28T14:26:40.215Z,26.70
2022-07-28T14:28:42.081Z,26.38
2022-07-28T14:30:43.918Z,26.25
2022-07-28T14:32:46.179Z,26.24
2022-07-28T14:34:47.978Z,26.32
2022-07-28T14:36:53.247Z,26.22
2022-07-28T14:38:55.011Z,26.04
2022-07-28T14:40:56.819Z,25.94
2022-07-28T14:42:58.532Z,25.69
2022-07-28T14:45:02.422Z,25.70
2022-07-28T14:47:05.055Z,25.49
2022-07-28T14:49:07.143Z,25.50
2022-07-28T14:51:11.502Z,25.61
2022-07-28T14:53:17.319Z,25.60
2022-07-28T14:55:19.539Z,25.45
2022-07-28T14:57:40.295Z,25.36
2022-07-28T14:59:43.319Z,25.38
2022-07-28T15:01:45.306Z,25.56
2022-07-28T15:03:50.975Z,25.31
2022-07-28T15:05:53.023Z,25.10
2022-07-28T15:08:06.399Z,25.28
2022-07-28T15:10:09.147Z,25.30
2022-07-28T15:12:11.091Z,25.36
2022-07-28T15:14:13.227Z,25.35
2022-07-28T15:16:16.826Z,25.46
2022-07-28T15:18:18.595Z,25.48
2022-07-28T15:20:20.467Z,25.61
2022-07-28T15:22:26.223Z,25.75
2022-07-28T15:24:30.661Z,25.92
2022-07-28T15:26:32.385Z,26.12
2022-07-28T15:28:34.164Z,26.48
2022-07-28T15:30:35.958Z,26.58
2022-07-28T15:32:56.079Z,26.62
2022-07-28T15:34:59.240Z,26.83
2022-07-28T15:37:01.123Z,26.67
2022-07-28T15:39:03.027Z,26.61
2022-07-28T15:41:12.829Z,26.53
2022-07-28T15:43:15.066Z,26.62
2022-07-28T15:45:17.354Z,26.52
2022-07-28T15:47:19.188Z,26.30
2022-07-28T15:49:20.895Z,26.23
2022-07-28T15:51:26.087Z,25.90
2022-07-28T15:53:28.846Z,26.01
2022-07-28T15:55:30.937Z,25.88
2022-07-28T15:57:37.583Z,26.08
2022-07-28T15:59:49.133Z,26.03
2022-07-28T16:01:52.255Z,25.70
2022-07-28T16:03:54.909Z,25.96
2022-07-28T16:05:56.840Z,25.84
2022-07-28T16:08:06.642Z,25.88
2022-07-28T16:10:08.808Z,26.07
2022-07-28T16:12:12.911Z,25.88
2022-07-28T16:14:17.933Z,25.57
2022-07-28T16:16:20.029Z,25.60
2022-07-28T16:18:21.799Z,25.49
2022-07-28T16:20:24.745Z,25.39
2022-07-28T16:22:26.429Z,25.20
2022-07-28T16:24:28.228Z,25.32
2022-07-28T16:26:30.367Z,25.20
2022-07-28T16:28:32.166Z,24.91
2022-07-28T16:30:35.873Z,25.01
2022-07-28T16:32:38.575Z,25.19
2022-07-28T16:34:40.678Z,25.06
2022-07-28T16:36:42.405Z,25.15
2022-07-28T16:38:44.207Z,25.22
2022-07-28T16:40:46.403Z,25.21
2022-07-28T16:42:48.937Z,25.32
2022-07-28T16:44:50.717Z,25.31
2022-07-28T16:46:55.553Z,25.06
2022-07-28T16:48:57.652Z,25.23
2022-07-28T16:50:59.944Z,25.17
2022-07-28T16:53:04.999Z,25.15
2022-07-28T16:55:13.892Z,25.25
2022-07-28T16:57:17.330Z,25.21
2022-07-28T16:59:19.537Z,25.28
2022-07-28T17:01:21.416Z,25.16
2022-07-28T17:03:23.178Z,25.26
2022-07-28T17:05:25.346Z,25.31
2022-07-28T17:07:27.745Z,25.28
2022-07-28T17:09:29.600Z,25.27
2022-07-28T17:11:31.571Z,25.14
2022-07-28T17:13:33.509Z,25.17
2022-07-28T17:15:35.489Z,25.10
2022-07-28T17:17:38.923Z,25.00
2022-07-28T17:19:53.254Z,25.01
2022-07-28T17:21:55.071Z,25.03
2022-07-28T17:23:57.284Z,24.96
2022-07-28T17:27:11.818Z,24.86
2022-07-28T17:28:26.525Z,24.74
2022-07-28T17:30:29.725Z,24.66
2022-07-28T17:32:32.084Z,24.62
2022-07-28T17:34:34.897Z,24.69
2022-07-28T17:36:37.827Z,24.62
2022-07-28T17:38:40.496Z,24.46
2022-07-28T17:40:44.057Z,24.53
2022-07-28T17:42:46.972Z,24.35
2022-07-28T17:44:50.932Z,24.38
2022-07-28T17:46:53.308Z,24.26
2022-07-28T17:49:13.950Z,24.14
2022-07-28T17:51:19.697Z,24.01
2022-07-28T17:53:21.575Z,24.05
2022-07-28T17:55:58.180Z,24.14
2022-07-28T17:58:32.669Z,24.22
2022-07-28T18:00:34.556Z,24.16
2022-07-28T18:02:37.621Z,24.16
2022-07-28T18:04:40.498Z,24.05
2022-07-28T18:06:46.020Z,24.02
2022-07-28T18:08:48.835Z,23.83
2022-07-28T18:10:51.340Z,23.86
2022-07-28T18:12:54.007Z,23.61
2022-07-28T18:14:55.954Z,23.81
2022-07-28T18:16:58.842Z,23.77
2022-07-28T18:19:02.210Z,23.70
2022-07-28T18:21:03.986Z,23.57
2022-07-28T18:23:07.886Z,23.55
2022-07-28T18:25:10.390Z,23.46
2022-07-28T18:27:12.178Z,23.53
2022-07-28T18:29:14.673Z,23.55
2022-07-28T18:31:16.523Z,23.46
2022-07-28T18:33:18.291Z,23.51
2022-07-28T18:35:21.679Z,23.47
2022-07-28T18:37:23.330Z,23.42
2022-07-28T18:39:25.310Z,23.43
2022-07-28T18:43:37.358Z,23.43
2022-07-28T18:45:39.397Z,23.27
2022-07-28T18:47:46.458Z,23.30
2022-07-28T18:49:49.460Z,23.28
2022-07-28T18:51:53.308Z,23.21
2022-07-28T18:53:55.306Z,23.11
2022-07-28T18:55:57.121Z,23.00
2022-07-28T18:58:02.736Z,23.00
2022-07-28T19:00:09.788Z,22.86
2022-07-28T19:02:11.914Z,22.87
2022-07-28T19:04:14.045Z,22.85
2022-07-28T19:06:15.977Z,22.85
2022-07-28T19:08:17.797Z,22.65
2022-07-28T19:10:19.658Z,22.73
2022-07-28T19:12:21.905Z,22.76
2022-07-28T19:14:23.918Z,22.68
2022-07-28T19:16:26.060Z,22.64
2022-07-28T19:18:28.199Z,22.73
2022-07-28T19:20:30.159Z,22.48
2022-07-28T19:22:32.186Z,22.45
2022-07-28T19:24:35.366Z,22.26
2022-07-28T19:26:37.296Z,22.27
2022-07-28T19:28:39.328Z,22.27
2022-07-28T19:30:42.664Z,22.31
2022-07-28T19:32:44.773Z,22.27
2022-07-28T19:34:46.646Z,22.27
2022-07-28T19:36:48.848Z,22.28
2022-07-28T19:38:50.934Z,22.11
2022-07-28T19:40:52.782Z,21.97
2022-07-28T19:42:54.880Z,21.94
2022-07-28T19:44:56.909Z,21.98
2022-07-28T19:47:00.587Z,22.03
2022-07-28T19:49:02.680Z,22.05
2022-07-28T19:51:05.429Z,22.07
2022-07-28T19:53:07.686Z,22.16
2022-07-28T19:55:17.589Z,22.17
2022-07-28T19:57:19.873Z,22.19
2022-07-28T19:59:22.370Z,22.23
2022-07-28T20:01:24.612Z,22.15
2022-07-28T20:04:01.334Z,22.12
2022-07-28T20:05:49.082Z,22.12
2022-07-28T20:07:52.649Z,22.13
2022-07-28T20:09:55.351Z,22.14
2022-07-28T20:11:57.733Z,22.17
2022-07-28T20:14:00.456Z,22.20
2022-07-28T20:16:02.277Z,22.13
2022-07-28T20:18:04.977Z,22.08
2022-07-28T20:20:12.442Z,22.05
2022-07-28T20:22:17.249Z,22.05
2022-07-28T20:24:19.966Z,22.09
2022-07-28T20:26:23.781Z,22.08
2022-07-28T20:28:25.946Z,22.04
2022-07-28T20:30:27.633Z,22.06
2022-07-28T20:32:29.448Z,22.05
2022-07-28T20:34:31.185Z,22.01
2022-07-28T20:36:34.612Z,21.99
2022-07-28T20:38:36.309Z,22.06
2022-07-28T20:40:37.973Z,21.99
2022-07-28T20:42:39.813Z,21.96
2022-07-28T20:44:41.554Z,21.96
2022-07-28T20:46:43.527Z,21.92
2022-07-28T20:48:45.296Z,21.87
2022-07-28T20:50:47.403Z,21.87
2022-07-28T20:52:49.108Z,21.73
2022-07-28T20:54:54.224Z,21.76
2022-07-28T20:56:56.497Z,21.80
2022-07-28T20:59:00.557Z,21.77
2022-07-28T21:01:08.927Z,21.82
2022-07-28T21:03:10.625Z,21.80
2022-07-28T21:05:26.716Z,21.74
2022-07-28T21:08:00.682Z,21.70
2022-07-28T21:09:55.758Z,21.73
2022-07-28T21:11:57.470Z,21.68
2022-07-28T21:13:59.360Z,21.69
2022-07-28T21:16:01.020Z,21.68
2022-07-28T21:18:02.881Z,21.65
2022-07-28T21:20:06.099Z,21.57
2022-07-28T21:22:08.025Z,21.58
2022-07-28T21:24:09.788Z,21.56
2022-07-28T21:26:12.849Z,21.50
2022-07-28T21:28:33.490Z,21.51
2022-07-28T21:30:35.217Z,21.51
2022-07-28T21:32:36.901Z,21.47
2022-07-28T21:34:38.930Z,21.46
2022-07-28T21:36:40.644Z,21.46
2022-07-28T21:38:42.646Z,21.41
2022-07-28T21:40:44.304Z,21.43
2022-07-28T21:42:47.330Z,21.46
2022-07-28T21:44:49.047Z,21.42
2022-07-28T21:46:52.570Z,21.44
2022-07-28T21:48:59.115Z,21.41
2022-07-28T21:51:00.829Z,21.38
2022-07-28T21:53:02.927Z,21.38
2022-07-28T21:55:06.103Z,21.38
2022-07-28T21:57:16.351Z,21.32
2022-07-28T21:59:26.440Z,21.37
2022-07-28T22:01:28.778Z,21.31
2022-07-28T22:03:30.573Z,21.26
2022-07-28T22:05:32.289Z,21.20
2022-07-28T22:07:33.953Z,21.24
2022-07-28T22:09:37.992Z,21.23
2022-07-28T22:11:39.854Z,21.27
2022-07-28T22:13:41.487Z,21.27
2022-07-28T22:15:43.113Z,21.26
2022-07-28T22:17:44.758Z,21.26
2022-07-28T22:19:46.621Z,21.25
2022-07-28T22:21:48.291Z,21.13
2022-07-28T22:23:49.946Z,21.17
2022-07-28T22:25:51.680Z,21.18
2022-07-28T22:27:59.684Z,21.20
2022-07-28T22:30:02.945Z,21.20
2022-07-28T22:32:05.282Z,21.18
2022-07-28T22:34:07.009Z,21.19
2022-07-28T22:36:09.076Z,21.18
2022-07-28T22:38:10.903Z,21.12
2022-07-28T22:40:13.631Z,21.14
2022-07-28T22:42:15.371Z,21.03
2022-07-28T22:44:17.527Z,21.08
2022-07-28T22:46:19.569Z,21.07
2022-07-28T22:48:21.296Z,21.09
2022-07-28T22:50:22.961Z,21.04
2022-07-28T22:52:28.846Z,21.07
2022-07-28T22:54:30.511Z,21.06
2022-07-28T22:56:34.772Z,21.05
2022-07-28T22:58:40.245Z,21.01
2022-07-28T23:00:42.218Z,21.02
2022-07-28T23:02:44.444Z,20.99
2022-07-28T23:04:51.551Z,21.04
2022-07-28T23:06:53.799Z,20.98
2022-07-28T23:08:55.544Z,21.00
2022-07-28T23:10:57.313Z,20.94
2022-07-28T23:12:59.011Z,20.94
2022-07-28T23:15:00.783Z,20.95
2022-07-28T23:17:03.365Z,20.94
2022-07-28T23:19:05.250Z,20.97
2022-07-28T23:21:07.779Z,20.95
2022-07-28T23:23:10.736Z,20.94
2022-07-28T23:25:12.515Z,20.93
2022-07-28T23:27:14.247Z,20.89
2022-07-28T23:29:16.030Z,20.90
2022-07-28T23:31:17.831Z,20.86
2022-07-28T23:33:55.195Z,20.73
2022-07-28T23:35:41.907Z,20.78
2022-07-28T23:37:43.938Z,20.81
2022-07-28T23:39:45.952Z,20.79
2022-07-28T23:41:47.761Z,20.69
2022-07-28T23:43:49.620Z,20.69
2022-07-28T23:45:51.332Z,20.73
2022-07-28T23:47:59.660Z,20.68
2022-07-28T23:50:02.916Z,20.70
2022-07-28T23:52:04.907Z,20.67
2022-07-28T23:54:06.722Z,20.66
2022-07-28T23:56:08.854Z,20.64
2022-07-28T23:58:10.653Z,20.63
